Time;durP1;ratioP1;P1;durP2;ratioP2;P2;SDS_P1;SDS_P2;PMS_P1;PMS_P2;Temp;Humidity;BMP_temperature;BMP_pressure;BME280_temperature;BME280_humidity;BME280_pressure;Samples;Min_cycle;Max_cycle;Signal;HPM_P1;HPM_P2
2021/10/29 00:02:09;;;;;;;;;8.67;8.00;;;;;19.17;49.23;100542.47;5098823;27;45511;-65
2021/10/29 00:04:34;;;;;;;;;12.00;8.00;;;;;19.16;49.20;100543.38;5098633;27;46141;-65
2021/10/29 00:07:00;;;;;;;;;8.67;7.33;;;;;19.17;49.20;100544.25;5098514;27;45320;-65
2021/10/29 00:09:25;;;;;;;;;8.00;8.00;;;;;19.16;49.09;100550.53;5098562;27;45590;-66
2021/10/29 00:11:51;;;;;;;;;7.67;7.67;;;;;19.16;48.98;100542.53;5098658;27;45393;-65
2021/10/29 00:14:16;;;;;;;;;9.33;9.33;;;;;19.17;49.25;100552.25;5098377;27;47059;-65
2021/10/29 00:16:41;;;;;;;;;7.67;7.67;;;;;19.16;49.13;100543.38;5098524;27;45325;-65
2021/10/29 00:19:07;;;;;;;;;9.00;7.33;;;;;19.16;49.20;100540.72;5098409;27;45440;-65
2021/10/29 00:21:32;;;;;;;;;9.67;9.67;;;;;19.17;49.32;100536.25;5098658;27;45395;-65
2021/10/29 00:23:58;;;;;;;;;8.33;8.33;;;;;19.17;49.27;100533.59;5098115;27;46992;-65
2021/10/29 00:26:24;;;;;;;;;7.00;7.00;;;;;19.16;49.01;100523.88;5098201;27;45313;-65
2021/10/29 00:28:49;;;;;;;;;11.33;8.33;;;;;19.17;49.20;100525.63;5097383;27;45224;-65
2021/10/29 00:31:15;;;;;;;;;7.67;7.67;;;;;19.16;49.32;100526.53;5098281;27;45407;-65
2021/10/29 00:33:40;;;;;;;;;10.00;10.00;;;;;19.16;49.22;100523.88;5097807;27;46975;-65
2021/10/29 00:36:05;;;;;;;;;8.33;8.00;;;;;19.16;48.92;100526.53;5098086;27;45339;-65
2021/10/29 00:38:31;;;;;;;;;10.67;10.67;;;;;19.16;48.97;100510.56;5098367;27;45266;-65
2021/10/29 00:40:56;;;;;;;;;11.67;8.67;;;;;19.17;49.04;100520.28;5098061;27;45462;-65
2021/10/29 00:43:22;;;;;;;;;10.00;8.67;;;;;19.16;49.18;100511.41;5097786;27;46220;-65
2021/10/29 00:45:48;;;;;;;;;13.67;11.00;;;;;19.16;49.33;100521.22;5097726;27;45340;-65
2021/10/29 00:48:13;;;;;;;;;11.33;10.33;;;;;19.15;49.23;100514.09;5097861;27;45377;-65
2021/10/29 00:50:40;;;;;;;;;9.00;9.00;;;;;19.15;48.87;100515.00;5098173;27;45384;-65
2021/10/29 00:53:06;;;;;;;;;11.00;11.00;;;;;19.16;49.24;100510.56;5097776;27;46862;-65
2021/10/29 00:55:32;;;;;;;;;10.67;8.67;;;;;19.16;49.30;100510.56;5097890;27;45419;-65
2021/10/29 00:57:57;;;;;;;;;10.33;9.67;;;;;19.15;49.15;100506.13;5097755;27;45460;-65
2021/10/29 01:00:23;;;;;;;;;7.67;6.67;;;;;19.15;48.99;100514.09;5097907;27;45222;-64
2021/10/29 01:02:49;;;;;;;;;11.67;8.33;;;;;19.15;49.22;100500.78;5097381;27;46097;-65
2021/10/29 01:05:14;;;;;;;;;10.00;10.00;;;;;19.15;49.18;100503.44;5097521;27;45390;-65
2021/10/29 01:07:40;;;;;;;;;7.67;7.00;;;;;19.15;49.16;100499.00;5097764;27;45289;-65
2021/10/29 01:10:06;;;;;;;;;8.00;8.00;;;;;19.15;49.04;100498.13;5097815;27;45201;-65
2021/10/29 01:12:32;;;;;;;;;10.00;9.67;;;;;19.15;48.99;100496.34;5097499;27;47126;-65
2021/10/29 01:15:00;;;;;;;;;6.00;6.00;;;;;19.15;48.98;100492.78;5097507;27;45344;-65
2021/10/29 01:17:26;;;;;;;;;6.00;6.00;;;;;19.15;49.46;100492.78;5097616;27;45479;-65
2021/10/29 01:19:54;;;;;;;;;12.67;8.67;;;;;19.16;49.10;100489.22;5097619;27;45364;-66
2021/10/29 01:22:21;;;;;;;;;8.00;8.00;;;;;19.15;49.09;100483.03;5097085;27;47088;-65
2021/10/29 01:24:47;;;;;;;;;7.67;6.67;;;;;19.15;49.17;100484.81;5097248;27;45434;-65
2021/10/29 01:27:14;;;;;;;;;10.67;10.33;;;;;19.16;49.22;100478.59;5097392;27;45406;-65
2021/10/29 01:29:39;;;;;;;;;11.33;9.00;;;;;19.14;49.03;100469.72;5097459;27;45381;-65
2021/10/29 01:32:07;;;;;;;;;8.00;8.00;;;;;19.16;49.30;100475.91;5096860;27;47106;-65
2021/10/29 01:34:37;;;;;;;;;11.67;9.33;;;;;19.16;48.73;100475.91;5096966;27;45324;-64
2021/10/29 01:37:05;;;;;;;;;12.00;9.00;;;;;19.15;49.17;100476.81;5097420;27;45311;-65
2021/10/29 01:39:31;;;;;;;;;8.67;7.33;;;;;19.15;49.00;100476.81;5097458;27;45387;-65
2021/10/29 01:41:56;;;;;;;;;9.00;8.00;;;;;19.15;49.01;100475.03;5103451;27;46076;-65
2021/10/29 01:44:22;;;;;;;;;5.33;5.33;;;;;19.15;49.24;100461.72;5103779;27;45267;-65
2021/10/29 01:46:48;;;;;;;;;9.33;7.33;;;;;19.15;49.09;100459.03;5104098;27;45251;-65
2021/10/29 01:49:14;;;;;;;;;9.67;8.00;;;;;19.16;49.30;100462.59;5104211;27;45258;-65
2021/10/29 01:51:40;;;;;;;;;7.67;7.67;;;;;19.15;49.04;100455.50;5103637;27;45440;-65
2021/10/29 01:54:06;;;;;;;;;11.00;8.00;;;;;19.15;49.18;100450.16;5103790;27;45274;-65
2021/10/29 01:56:32;;;;;;;;;10.33;8.00;;;;;19.14;49.32;100446.59;5103773;27;45454;-65
2021/10/29 01:58:58;;;;;;;;;11.67;8.00;;;;;19.14;49.25;100446.59;5103930;27;45392;-65
2021/10/29 02:01:24;;;;;;;;;7.33;7.00;;;;;19.15;48.93;100437.72;5103315;27;46107;-65
2021/10/29 02:03:51;;;;;;;;;6.00;6.00;;;;;19.16;49.29;100438.63;5103753;27;45404;-65
2021/10/29 02:06:17;;;;;;;;;8.00;8.00;;;;;19.15;48.92;100435.06;5103792;27;45231;-65
2021/10/29 02:08:43;;;;;;;;;9.67;8.00;;;;;19.15;48.90;100428.84;5103751;27;45446;-65
2021/10/29 02:11:09;;;;;;;;;6.67;6.67;;;;;19.14;49.14;100432.41;5103488;27;46392;-66
2021/10/29 02:13:35;;;;;;;;;7.00;7.00;;;;;19.15;49.33;100434.19;5103329;27;45350;-65
2021/10/29 02:16:00;;;;;;;;;9.00;8.33;;;;;19.15;49.17;100426.19;5103854;27;45315;-65
2021/10/29 02:18:26;;;;;;;;;10.00;9.67;;;;;19.14;48.91;100422.59;5103725;27;45440;-65
2021/10/29 02:20:51;;;;;;;;;9.00;8.67;;;;;19.14;49.16;100421.75;5103437;27;45395;-66
2021/10/29 02:23:16;;;;;;;;;8.67;7.67;;;;;19.14;49.19;100417.28;5103474;27;45350;-65
2021/10/29 02:25:46;;;;;;;;;10.33;10.33;;;;;19.15;48.96;100418.19;5103340;27;45610;-65
2021/10/29 02:28:13;;;;;;;;;7.00;6.67;;;;;19.13;49.16;100414.66;5103677;27;45329;-65
2021/10/29 02:30:39;;;;;;;;;10.00;9.00;;;;;19.13;49.09;100415.53;5102808;27;47713;-65
2021/10/29 02:33:05;;;;;;;;;8.00;8.00;;;;;19.14;48.94;100411.09;5102995;27;45314;-65
2021/10/29 02:35:30;;;;;;;;;9.33;7.67;;;;;19.14;49.33;100409.28;5103533;27;45362;-64
2021/10/29 02:37:55;;;;;;;;;10.33;10.33;;;;;19.13;49.18;100399.56;5103656;27;45385;-65
2021/10/29 02:40:21;;;;;;;;;10.67;9.00;;;;;19.13;49.34;100404.00;5103108;27;46959;-65
2021/10/29 02:42:46;;;;;;;;;9.67;9.67;;;;;19.13;49.15;100410.22;5102965;27;45413;-65
2021/10/29 02:45:12;;;;;;;;;9.67;8.00;;;;;19.14;49.11;100403.09;5103237;27;45410;-65
2021/10/29 02:47:37;;;;;;;;;8.00;8.00;;;;;19.13;49.13;100393.34;5103320;27;45530;-65
2021/10/29 02:50:03;;;;;;;;;9.67;8.00;;;;;19.13;49.04;100393.34;5103198;27;46945;-65
2021/10/29 02:52:29;;;;;;;;;11.00;9.33;;;;;19.13;49.02;100388.00;5100379;27;45530;-66
2021/10/29 02:54:55;;;;;;;;;12.33;8.67;;;;;19.13;49.17;100390.69;5099737;27;45438;-64
2021/10/29 02:57:20;;;;;;;;;11.00;9.00;;;;;19.13;49.21;100382.69;5099867;27;45449;-65
2021/10/29 02:59:45;;;;;;;;;7.33;7.33;;;;;19.13;49.07;100380.03;5099398;27;47121;-65
2021/10/29 03:02:11;;;;;;;;;10.67;7.67;;;;;19.13;49.04;100377.34;5099482;27;45832;-65
2021/10/29 03:04:36;;;;;;;;;8.00;8.00;;;;;19.14;48.99;100371.13;5099902;27;45475;-65
2021/10/29 03:07:02;;;;;;;;;8.33;8.33;;;;;19.13;49.05;100372.03;5099771;27;45689;-65
2021/10/29 03:09:28;;;;;;;;;7.67;7.67;;;;;19.13;48.91;100369.38;5099331;27;46261;-65
2021/10/29 03:11:53;;;;;;;;;7.67;7.67;;;;;19.12;49.07;100355.16;5099133;27;45299;-65
2021/10/29 03:14:18;;;;;;;;;10.67;8.33;;;;;19.14;48.95;100357.81;5099526;27;45566;-65
2021/10/29 03:16:44;;;;;;;;;10.00;10.00;;;;;19.13;48.99;100356.94;5099647;27;45423;-66
2021/10/29 03:19:10;;;;;;;;;9.00;8.33;;;;;19.13;49.14;100354.28;5099154;27;47085;-65
2021/10/29 03:21:35;;;;;;;;;8.33;8.33;;;;;19.13;49.25;100348.94;5099363;27;45328;-65
2021/10/29 03:24:01;;;;;;;;;10.00;7.67;;;;;19.14;49.13;100349.81;5099641;27;45285;-65
2021/10/29 03:26:26;;;;;;;;;7.33;7.00;;;;;19.14;49.00;100341.84;5099528;27;45475;-65
2021/10/29 03:28:51;;;;;;;;;12.33;9.67;;;;;19.12;48.97;100341.84;5098982;27;46184;-65
2021/10/29 03:31:17;;;;;;;;;8.33;6.67;;;;;19.13;49.09;100340.06;5099027;27;45499;-64
2021/10/29 03:33:42;;;;;;;;;8.33;7.33;;;;;19.14;49.25;100333.84;5098974;27;45483;-66
2021/10/29 03:36:08;;;;;;;;;9.00;7.67;;;;;19.13;49.18;100329.41;5099202;27;45360;-65
2021/10/29 03:41:10;;;;;;;;;10.67;6.67;;;;;19.12;48.94;100322.34;5098913;27;46582;-65
2021/10/29 03:46:16;;;;;;;;;7.00;7.00;;;;;19.11;49.20;100318.78;5099180;27;45297;-65
2021/10/29 03:53:59;;;;;;;;;8.00;7.00;;;;;19.13;48.89;100313.41;5098972;27;45225;-65
2021/10/29 03:56:26;;;;;;;;;8.00;8.00;;;;;19.12;49.07;100317.00;5098956;27;45578;-65
2021/10/29 03:58:54;;;;;;;;;7.33;7.33;;;;;19.11;48.84;100316.13;5098433;27;47179;-65
2021/10/29 04:01:20;;;;;;;;;8.33;6.67;;;;;19.11;49.24;100308.13;5098345;27;45412;-65
2021/10/29 04:03:46;;;;;;;;;6.67;6.67;;;;;19.12;48.81;100311.69;5097448;27;45471;-65
2021/10/29 04:06:11;;;;;;;;;8.00;8.00;;;;;19.12;49.08;100309.03;5098877;27;45524;-65
2021/10/29 04:08:37;;;;;;;;;8.33;7.33;;;;;19.11;49.01;100294.81;5098335;27;46173;-65
2021/10/29 04:11:03;;;;;;;;;9.00;9.00;;;;;19.10;48.96;100293.94;5098499;27;45322;-65
2021/10/29 04:13:33;;;;;;;;;8.00;7.00;;;;;19.12;49.04;100290.38;5098586;27;45224;-65
2021/10/29 04:16:00;;;;;;;;;8.00;7.67;;;;;19.11;49.13;100289.50;5098746;27;45366;-65
2021/10/29 04:18:26;;;;;;;;;10.33;7.67;;;;;19.12;48.85;100282.38;5098069;27;46398;-65
2021/10/29 04:20:52;;;;;;;;;8.33;6.33;;;;;19.10;48.89;100279.72;5098262;27;45471;-65
2021/10/29 04:23:18;;;;;;;;;8.67;8.00;;;;;19.10;48.97;100277.94;5098180;27;45214;-64
2021/10/29 04:25:43;;;;;;;;;7.00;7.00;;;;;19.11;49.03;100273.50;5098506;27;45217;-65
2021/10/29 04:28:11;;;;;;;;;10.33;8.00;;;;;19.12;49.09;100279.72;5097942;27;47210;-65
2021/10/29 04:30:37;;;;;;;;;10.00;7.00;;;;;19.11;48.72;100273.50;5098071;27;45420;-65
2021/10/29 04:33:07;;;;;;;;;10.33;7.67;;;;;19.12;49.09;100264.59;5098048;27;45680;-65
2021/10/29 04:35:34;;;;;;;;;7.33;7.33;;;;;19.10;48.94;100267.28;5098480;27;45348;-64
2021/10/29 04:38:00;;;;;;;;;9.00;8.67;;;;;19.10;49.04;100272.63;5097896;27;45537;-65
2021/10/29 04:40:25;;;;;;;;;6.33;6.00;;;;;19.11;49.04;100273.50;5097773;27;45302;-65
2021/10/29 04:42:51;;;;;;;;;9.00;9.00;;;;;19.11;48.79;100270.84;5098099;27;45308;-65
2021/10/29 04:45:16;;;;;;;;;8.33;8.00;;;;;19.09;49.01;100268.22;5098130;27;45401;-65
2021/10/29 04:47:41;;;;;;;;;9.33;7.67;;;;;19.10;48.93;100263.75;5098036;27;46090;-65
2021/10/29 04:50:07;;;;;;;;;8.33;7.67;;;;;19.10;49.09;100261.09;5097984;27;45473;-65
2021/10/29 04:52:33;;;;;;;;;7.00;6.33;;;;;19.10;49.13;100261.97;5098109;27;45321;-65
2021/10/29 04:54:59;;;;;;;;;8.33;7.67;;;;;19.09;49.06;100260.22;5098050;27;45355;-65
2021/10/29 04:57:24;;;;;;;;;7.67;6.67;;;;;19.09;49.10;100260.22;5097568;27;47305;-65
2021/10/29 04:59:50;;;;;;;;;7.00;7.00;;;;;19.09;48.83;100254.91;5097785;27;45360;-65
2021/10/29 05:02:15;;;;;;;;;8.33;8.00;;;;;19.10;48.89;100255.75;5097761;27;45838;-65
2021/10/29 05:04:41;;;;;;;;;7.00;6.00;;;;;19.09;48.93;100252.25;5097857;27;45283;-65
2021/10/29 05:07:06;;;;;;;;;7.67;6.00;;;;;19.10;48.57;100253.09;5097631;27;47055;-65
2021/10/29 05:09:31;;;;;;;;;9.33;8.33;;;;;19.09;48.89;100243.38;5097542;27;45232;-65
2021/10/29 05:11:57;;;;;;;;;6.67;6.67;;;;;19.09;48.95;100241.59;5097847;27;45274;-65
2021/10/29 05:14:22;;;;;;;;;5.67;4.67;;;;;19.09;48.98;100244.25;5097454;27;45470;-65
2021/10/29 05:16:50;;;;;;;;;8.67;7.00;;;;;19.09;48.89;100238.94;5097044;27;47068;-65
2021/10/29 05:19:15;;;;;;;;;9.33;7.33;;;;;19.09;48.93;100238.94;5097461;27;45305;-64
2021/10/29 05:21:41;;;;;;;;;8.33;8.00;;;;;19.09;49.01;100230.94;5097315;27;45408;-65
2021/10/29 05:24:06;;;;;;;;;7.33;7.33;;;;;19.09;48.76;100235.38;5097869;27;45350;-65
2021/10/29 05:26:32;;;;;;;;;6.33;6.00;;;;;19.10;48.74;100234.44;5096473;27;47271;-65
2021/10/29 05:28:57;;;;;;;;;8.33;6.67;;;;;19.10;49.01;100226.44;5097151;27;45363;-65
2021/10/29 05:31:23;;;;;;;;;6.00;6.00;;;;;19.09;48.80;100224.72;5097224;27;45365;-64
2021/10/29 05:33:48;;;;;;;;;6.00;6.00;;;;;19.08;49.02;100222.97;5097240;27;45479;-65
2021/10/29 05:36:13;;;;;;;;;5.00;5.00;;;;;19.10;48.93;100230.00;5096527;27;47019;-65
2021/10/29 05:38:39;;;;;;;;;8.00;8.00;;;;;19.10;49.04;100214.00;5097147;27;45499;-65
2021/10/29 05:41:05;;;;;;;;;9.00;9.00;;;;;19.10;48.74;100223.78;5096971;27;45399;-65
2021/10/29 05:43:32;;;;;;;;;7.33;6.33;;;;;19.10;49.00;100219.34;5097311;27;45572;-65
2021/10/29 05:45:57;;;;;;;;;6.67;6.67;;;;;19.10;48.86;100222.00;5096901;27;45440;-64
2021/10/29 05:48:23;;;;;;;;;10.00;7.00;;;;;19.10;49.01;100216.69;5096861;27;45464;-65
2021/10/29 05:50:50;;;;;;;;;7.00;6.00;;;;;19.12;49.08;100211.31;5097180;27;45339;-65
2021/10/29 05:53:33;;;;;;;;;6.00;6.00;;;;;19.13;48.70;100217.50;5097343;27;45445;-64
2021/10/29 05:55:58;;;;;;;;;8.00;8.00;;;;;19.10;48.90;100211.34;5096596;27;46395;-65
2021/10/29 05:58:26;;;;;;;;;9.00;7.00;;;;;19.12;48.73;100215.78;5112745;27;45374;-65
2021/10/29 06:00:51;;;;;;;;;7.33;6.33;;;;;19.11;48.84;100201.56;5096923;27;45312;-65
2021/10/29 06:03:17;;;;;;;;;6.00;6.00;;;;;19.12;48.99;100194.47;5096845;27;45447;-65
2021/10/29 06:05:42;;;;;;;;;7.33;7.33;;;;;19.10;48.86;100203.34;5096580;27;46281;-65
2021/10/29 06:08:07;;;;;;;;;6.67;6.33;;;;;19.12;48.89;100202.47;5096643;27;45412;-65
2021/10/29 06:10:33;;;;;;;;;7.00;7.00;;;;;19.13;48.91;100198.88;5096797;27;45801;-65
2021/10/29 06:12:58;;;;;;;;;8.67;7.67;;;;;19.13;48.97;100193.53;5096840;27;45255;-65
2021/10/29 06:15:24;;;;;;;;;7.33;6.00;;;;;19.12;49.10;100197.13;5096516;27;46397;-66
2021/10/29 06:17:50;;;;;;;;;7.00;6.67;;;;;19.12;48.83;100194.47;5096626;27;45329;-65
2021/10/29 06:20:17;;;;;;;;;5.33;5.33;;;;;19.12;49.03;100183.81;5096835;27;45453;-65
2021/10/29 06:22:49;;;;;;;;;7.67;6.33;;;;;19.12;48.75;100179.34;5096496;27;45462;-67
2021/10/29 06:25:20;;;;;;;;;7.33;6.00;;;;;19.11;49.01;100182.94;5096447;27;47032;-65
2021/10/29 06:30:36;;;;;;;;;7.33;7.00;;;;;19.12;49.00;100189.13;5100243;27;45325;-66
2021/10/29 06:33:02;;;;;;;;;6.67;6.67;;;;;19.14;49.21;100184.66;5100019;27;45490;-66
2021/10/29 06:35:29;;;;;;;;;6.67;6.33;;;;;19.15;49.18;100186.41;5099906;27;46992;-63
2021/10/29 06:37:55;;;;;;;;;6.00;5.33;;;;;19.15;48.99;100181.09;5099798;27;45308;-66
2021/10/29 06:40:21;;;;;;;;;7.67;6.67;;;;;19.14;49.02;100184.66;5099883;27;45341;-66
2021/10/29 06:42:52;;;;;;;;;6.67;6.00;;;;;19.14;49.02;100181.97;5099891;27;45281;-66
2021/10/29 07:01:49;;;;;;;;;5.33;5.33;;;;;19.12;48.93;100184.66;5099543;27;45264;-66
2021/10/29 07:42:28;;;;;;;;;7.00;7.00;;;;;19.10;48.54;100186.50;5055868;28;45524;-66
2021/10/29 07:44:53;;;;;;;;;6.00;6.00;;;;;19.10;48.45;100181.16;5055769;28;45440;-64
2021/10/29 07:47:20;;;;;;;;;7.33;6.00;;;;;19.09;48.67;100184.75;5055927;28;45504;-64
2021/10/29 07:49:45;;;;;;;;;7.00;6.00;;;;;19.10;48.59;100192.69;5055795;28;47003;-66
2021/10/29 07:52:11;;;;;;;;;8.67;6.67;;;;;19.10;48.77;100192.69;5055913;28;45354;-65
2021/10/29 07:54:37;;;;;;;;;6.33;6.33;;;;;19.10;48.56;100191.81;5055907;28;45438;-64
2021/10/29 07:57:04;;;;;;;;;7.00;6.33;;;;;19.10;48.49;100190.03;5055999;28;45466;-66
2021/10/29 07:59:29;;;;;;;;;9.33;7.67;;;;;19.10;48.54;100202.47;5055583;28;47060;-66
2021/10/29 08:01:54;;;;;;;;;7.00;7.00;;;;;19.10;48.61;100192.69;5055521;28;45436;-64
2021/10/29 08:04:22;;;;;;;;;5.67;5.00;;;;;19.11;48.71;100206.91;5055753;28;45432;-64
2021/10/29 08:06:50;;;;;;;;;8.33;7.67;;;;;19.10;48.33;100208.69;5055860;28;45478;-64
2021/10/29 08:09:16;;;;;;;;;6.33;6.00;;;;;19.12;48.45;100210.44;5055138;28;46930;-65
2021/10/29 08:11:41;;;;;;;;;7.00;7.00;;;;;19.11;48.66;100209.56;5055477;28;45457;-66
2021/10/29 08:14:07;;;;;;;;;5.33;5.33;;;;;19.11;48.52;100212.22;5055875;28;45474;-63
2021/10/29 08:16:32;;;;;;;;;5.33;5.33;;;;;19.10;48.63;100206.03;5080212;27;45345;-66
2021/10/29 08:18:58;;;;;;;;;6.00;4.00;;;;;19.09;48.36;100217.59;5098267;27;46024;-63
2021/10/29 08:21:24;;;;;;;;;5.67;5.67;;;;;19.12;48.56;100210.44;5097961;27;45424;-64
2021/10/29 08:23:49;;;;;;;;;8.00;7.33;;;;;19.12;48.66;100215.78;5098296;27;45314;-64
2021/10/29 08:26:15;;;;;;;;;5.67;5.67;;;;;19.12;48.37;100210.44;5098540;27;45432;-64
2021/10/29 08:28:41;;;;;;;;;5.67;5.67;;;;;19.12;48.50;100213.13;5098121;27;46072;-64
2021/10/29 08:31:06;;;;;;;;;6.00;6.00;;;;;19.10;48.59;100224.66;5098060;27;45384;-65
2021/10/29 08:33:32;;;;;;;;;10.33;7.67;;;;;19.10;48.39;100219.34;5097870;27;45361;-65
2021/10/29 08:36:00;;;;;;;;;6.00;6.00;;;;;19.12;48.36;100226.44;5098299;27;45587;-65
2021/10/29 08:38:26;;;;;;;;;6.67;6.67;;;;;19.10;48.80;100216.69;5097929;27;46988;-63
2021/10/29 08:40:53;;;;;;;;;7.00;6.00;;;;;19.11;48.31;100214.91;5097924;27;45244;-64
2021/10/29 08:43:19;;;;;;;;;10.67;6.00;;;;;19.11;48.44;100225.56;5097947;27;45232;-66
2021/10/29 08:45:45;;;;;;;;;7.33;7.33;;;;;19.10;48.67;100227.34;5096545;27;45305;-64
2021/10/29 08:48:11;;;;;;;;;7.33;6.33;;;;;19.11;48.63;100222.88;5097581;27;47016;-64
2021/10/29 08:50:37;;;;;;;;;10.33;7.00;;;;;19.10;48.58;100219.34;5096913;27;45436;-66
2021/10/29 08:53:03;;;;;;;;;6.00;5.00;;;;;19.10;48.33;100229.13;5098136;27;45398;-66
2021/10/29 08:55:31;;;;;;;;;5.33;5.33;;;;;19.10;48.47;100222.00;5096723;27;45519;-66
2021/10/29 08:57:59;;;;;;;;;5.33;5.33;;;;;19.10;48.59;100219.34;5097494;27;46089;-66
2021/10/29 09:00:28;;;;;;;;;10.67;6.67;;;;;19.10;48.42;100222.00;5097788;27;45249;-65
2021/10/29 09:03:09;;;;;;;;;8.00;5.67;;;;;19.10;48.47;100222.00;5097442;27;45347;-64
2021/10/29 09:05:48;;;;;;;;;6.00;6.00;;;;;19.11;48.60;100214.91;5098045;27;45442;-64
2021/10/29 09:11:02;;;;;;;;;8.33;7.67;;;;;19.10;48.27;100219.34;5097454;27;45377;-63
2021/10/29 09:33:02;;;;;;;;;5.33;5.33;;;;;19.10;48.49;100229.13;5096681;27;45590;-63
2021/10/29 09:35:36;;;;;;;;;10.67;8.00;;;;;19.09;48.35;100222.94;5097438;27;45213;-64
2021/10/29 09:38:03;;;;;;;;;8.67;6.67;;;;;19.09;48.57;100233.59;5097434;27;45404;-65
2021/10/29 09:40:35;;;;;;;;;8.00;7.00;;;;;19.10;48.49;100223.78;5096808;27;46105;-63
2021/10/29 09:43:13;;;;;;;;;8.00;7.00;;;;;19.10;48.41;100224.66;5096803;27;45362;-64
2021/10/29 09:45:49;;;;;;;;;7.00;7.00;;;;;19.09;48.55;100220.28;5097121;27;45289;-64
2021/10/29 09:48:21;;;;;;;;;7.00;6.00;;;;;19.09;48.34;100216.72;5097332;27;45526;-66
2021/10/29 09:50:56;;;;;;;;;6.33;6.33;;;;;19.11;48.33;100228.22;5096820;27;46098;-64
2021/10/29 09:53:37;;;;;;;;;8.33;7.33;;;;;19.10;48.55;100235.31;5096743;27;45405;-64
2021/10/29 09:56:45;;;;;;;;;6.67;6.67;;;;;19.09;48.47;100236.25;5097009;27;45400;-64
2021/10/29 09:59:00;;;;;;;;;6.67;6.33;;;;;19.10;48.43;100234.44;5096677;27;45276;-64
2021/10/29 10:01:31;;;;;;;;;7.33;7.33;;;;;19.10;48.47;100235.31;5097895;27;45434;-64
2021/10/29 10:04:07;;;;;;;;;7.33;5.67;;;;;19.12;48.39;100247.75;5100215;27;45589;-63
2021/10/29 10:06:37;;;;;;;;;7.00;7.00;;;;;19.10;48.58;100240.66;5100753;27;45376;-64
2021/10/29 10:09:07;;;;;;;;;5.00;5.00;;;;;19.09;48.38;100262.91;5100557;27;45446;-64
2021/10/29 10:11:35;;;;;;;;;6.67;6.33;;;;;19.12;48.65;100247.75;5100415;27;45440;-66
2021/10/29 10:14:04;;;;;;;;;7.00;5.67;;;;;19.10;48.73;100250.44;5100296;27;45658;-63
2021/10/29 10:16:32;;;;;;;;;7.00;7.00;;;;;19.10;48.42;100259.31;5100232;27;45337;-64
2021/10/29 10:18:58;;;;;;;;;6.67;4.33;;;;;19.10;48.70;100247.75;5100295;27;45374;-64
2021/10/29 10:21:26;;;;;;;;;6.00;6.00;;;;;19.10;48.53;100256.63;5099877;27;46059;-64
2021/10/29 10:23:56;;;;;;;;;7.00;7.00;;;;;19.10;48.67;100258.41;5100091;27;45404;-65
2021/10/29 10:43:20;;;;;;;;;6.67;5.33;;;;;19.10;48.55;100240.66;5099673;27;45743;-66
2021/10/29 10:54:01;;;;;;;;;5.67;5.67;;;;;19.10;48.54;100272.63;5076889;28;46128;-66
2021/10/29 10:57:02;;;;;;;;;7.67;6.33;;;;;19.12;48.69;100280.56;5076889;28;45497;-66
2021/10/29 10:59:57;;;;;;;;;5.00;5.00;;;;;19.10;48.54;100280.63;5077155;28;45323;-64
2021/10/29 11:10:41;;;;;;;;;5.67;4.67;;;;;19.09;48.49;100254.03;5077155;28;45361;-63
2021/10/29 11:13:08;;;;;;;;;6.67;6.67;;;;;19.10;48.69;100259.31;5076196;28;45617;-63
2021/10/29 11:15:36;;;;;;;;;6.00;6.00;;;;;19.11;48.71;100246.88;5076841;28;47129;-64
2021/10/29 11:18:26;;;;;;;;;9.00;7.67;;;;;19.10;48.80;100251.31;5076633;28;45431;-61
2021/10/29 11:20:53;;;;;;;;;10.00;6.33;;;;;19.10;48.59;100245.97;5076752;28;45411;-65
2021/10/29 11:23:32;;;;;;;;;6.33;6.33;;;;;19.12;48.70;100245.94;5076702;28;45483;-66
2021/10/29 11:26:04;;;;;;;;;7.67;7.67;;;;;19.12;48.65;100231.75;5076462;28;45263;-64
2021/10/29 11:28:42;;;;;;;;;7.67;6.00;;;;;19.12;48.70;100229.09;5087146;27;45697;-64
2021/10/29 11:31:10;;;;;;;;;8.00;6.00;;;;;19.12;48.70;100226.44;5099237;27;45463;-64
2021/10/29 11:33:47;;;;;;;;;7.33;7.33;;;;;19.11;48.53;100222.88;5098898;27;45633;-65
2021/10/29 11:36:18;;;;;;;;;5.33;5.33;;;;;19.12;48.86;100221.09;5098876;27;46159;-63
2021/10/29 11:38:47;;;;;;;;;7.00;6.67;;;;;19.12;48.62;100223.78;5098907;27;45168;-64
2021/10/29 11:41:16;;;;;;;;;6.67;5.67;;;;;19.12;48.70;100213.13;5098772;27;45535;-63
2021/10/29 11:43:41;;;;;;;;;7.67;6.33;;;;;19.12;48.81;100211.31;5098975;27;45376;-65
2021/10/29 11:46:11;;;;;;;;;7.00;6.67;;;;;19.12;48.76;100210.44;5098708;27;46917;-63
2021/10/29 11:48:55;;;;;;;;;8.67;5.33;;;;;19.12;48.65;100207.78;5098765;27;45443;-64
2021/10/29 11:51:23;;;;;;;;;7.33;6.00;;;;;19.12;49.01;100213.97;5098898;27;45411;-64
2021/10/29 11:54:03;;;;;;;;;5.67;5.33;;;;;19.11;49.11;100206.91;5099195;27;45371;-63
2021/10/29 11:56:39;;;;;;;;;10.33;7.33;;;;;19.12;48.86;100205.13;5098502;27;46358;-63
2021/10/29 12:09:39;;;;;;;;;6.00;6.00;;;;;19.12;49.02;100205.13;5098195;27;45511;-64
2021/10/29 12:12:12;;;;;;;;;8.33;6.33;;;;;19.12;48.81;100195.31;5098622;27;45589;-63
2021/10/29 12:14:40;;;;;;;;;6.00;6.00;;;;;19.12;48.95;100202.47;5098520;27;45413;-63
2021/10/29 12:17:15;;;;;;;;;5.33;5.33;;;;;19.12;49.11;100191.81;5098269;27;46379;-64
2021/10/29 12:19:43;;;;;;;;;6.67;6.33;;;;;19.13;48.99;100193.53;5098102;27;45438;-63
2021/10/29 12:22:27;;;;;;;;;6.00;6.00;;;;;19.13;48.71;100201.53;5096658;27;45265;-66
2021/10/29 12:25:02;;;;;;;;;8.00;6.33;;;;;19.14;49.01;100187.31;5097292;27;45379;-64
2021/10/29 12:27:40;;;;;;;;;7.00;6.00;;;;;19.15;48.90;100191.75;5098177;27;46166;-65
2021/10/29 12:58:51;;;;;;;;;6.33;5.67;;;;;19.15;49.17;100151.78;5095782;27;45345;-63
2021/10/29 13:01:42;;;;;;;;;8.33;5.67;;;;;19.15;49.16;100147.31;5095381;27;46414;-63
2021/10/29 13:04:17;;;;;;;;;5.33;5.33;;;;;19.16;48.99;100148.22;5095335;27;45489;-64
2021/10/29 13:06:46;;;;;;;;;5.67;5.67;;;;;19.15;49.22;100159.78;5095570;27;45467;-64
2021/10/29 13:09:25;;;;;;;;;4.67;4.67;;;;;19.16;48.89;100174.84;5095443;27;45266;-63
2021/10/29 13:11:56;;;;;;;;;7.00;7.00;;;;;19.16;49.02;100177.50;5095018;27;46079;-64
2021/10/29 13:14:29;;;;;;;;;8.00;5.00;;;;;19.16;49.22;100170.38;5095358;27;45310;-63
2021/10/29 13:16:55;;;;;;;;;8.00;6.67;;;;;19.17;49.00;100176.59;5097523;27;45540;-64
2021/10/29 13:36:02;;;;;;;;;7.67;6.00;;;;;19.16;49.30;100180.19;5096781;27;45421;-64
2021/10/29 13:52:18;;;;;;;;;5.67;5.67;;;;;19.16;49.30;100190.84;5097375;27;45297;-65
2021/10/29 14:29:40;;;;;;;;;8.67;7.00;;;;;19.17;49.16;100220.09;5053627;28;45446;-63
2021/10/29 14:34:44;;;;;;;;;5.33;5.33;;;;;19.18;49.24;100223.63;5076840;27;45498;-64
2021/10/29 14:37:17;;;;;;;;;8.00;8.00;;;;;19.17;49.24;100221.88;5096179;27;46158;-64
2021/10/29 14:39:53;;;;;;;;;4.67;4.67;;;;;19.19;49.28;100214.72;5096401;27;45402;-64
2021/10/29 14:42:33;;;;;;;;;5.67;5.67;;;;;19.17;49.27;100225.41;5096336;27;45368;-65
2021/10/29 14:45:07;;;;;;;;;5.00;5.00;;;;;19.17;49.25;100244.06;5096606;27;45388;-63
2021/10/29 15:15:51;;;;;;;;;6.67;6.67;;;;;19.18;49.70;100220.97;5097171;27;45302;-63
2021/10/29 15:25:53;;;;;;;;;6.67;5.33;;;;;19.18;49.64;100231.63;5036241;28;45578;-63
2021/10/29 15:41:50;;;;;;;;;6.33;5.67;;;;;19.18;49.60;100218.31;4976237;28;45423;-62
2021/10/29 15:44:29;;;;;;;;;7.67;6.67;;;;;19.18;49.62;100227.19;4976427;28;45405;-64
2021/10/29 15:47:04;;;;;;;;;6.33;6.33;;;;;19.18;49.83;100236.97;4976397;28;45506;-62
2021/10/29 15:49:40;;;;;;;;;6.67;6.00;;;;;19.18;49.76;100236.97;4976489;28;45583;-63
2021/10/29 15:52:19;;;;;;;;;5.33;5.00;;;;;19.17;49.50;100229.88;4976202;28;47102;-63
2021/10/29 15:54:59;;;;;;;;;5.33;5.33;;;;;19.17;49.63;100237.84;4976104;28;45274;-63
2021/10/29 15:57:27;;;;;;;;;5.67;5.67;;;;;19.19;49.65;100241.34;4976347;28;45449;-63
2021/10/29 16:18:42;;;;;;;;;6.33;5.33;;;;;19.18;49.64;100236.97;5098397;27;45328;-63
2021/10/29 16:21:08;;;;;;;;;7.00;5.00;;;;;19.18;49.66;100237.84;5098516;27;45403;-63
2021/10/29 16:23:33;;;;;;;;;4.00;4.00;;;;;19.17;49.80;100230.75;5097871;27;45894;-63
2021/10/29 16:26:06;;;;;;;;;6.00;5.00;;;;;19.18;49.82;100232.50;5098127;27;45279;-63
2021/10/29 16:28:33;;;;;;;;;6.67;6.00;;;;;19.19;49.85;100234.25;5098499;27;45324;-63